GIA134 WADD-WAAA
Flight info
| Callsign | GIA134 |
|---|---|
| Flight time | N/A |
| Altitude | 37000 |
| Route | PEDET W41 LIPOT |
| Aircraft | B744/H-SDE3FGHIM1M2RWXY/LB1 |
Departure
| Time | N/A |
|---|---|
| Airport | Denpasar I Gusti Ngurah Rai International Airport (WADD) |
Arrival
| Time | 2026-05-07 00:55 |
|---|---|
| Airport | Sultan Hasanuddin International Airport (WAAA) |
| Time | Latitude | Longitude | Altitude | Speed | Heading |
|---|---|---|---|---|---|
| 2026-05-07 00:48 | -4.87018 | 119.50968 | 5807 ft | 287 kts | 101° |
| 2026-05-07 00:48 | -4.87324 | 119.52447 | 5581 ft | 285 kts | 101° |
| 2026-05-07 00:48 | -4.87719 | 119.54361 | 5268 ft | 275 kts | 101° |
| 2026-05-07 00:49 | -4.88094 | 119.56176 | 5160 ft | 257 kts | 101° |
| 2026-05-07 00:49 | -4.88445 | 119.57874 | 5056 ft | 241 kts | 100° |
| 2026-05-07 00:49 | -4.88775 | 119.59470 | 4922 ft | 228 kts | 100° |
| 2026-05-07 00:49 | -4.89091 | 119.60996 | 4701 ft | 220 kts | 100° |
| 2026-05-07 00:50 | -4.89472 | 119.62464 | 4370 ft | 219 kts | 113° |
| 2026-05-07 00:50 | -4.90462 | 119.63584 | 3992 ft | 216 kts | 146° |
| 2026-05-07 00:50 | -4.91883 | 119.63925 | 3572 ft | 211 kts | 180° |
| 2026-05-07 00:50 | -4.93262 | 119.63594 | 3346 ft | 196 kts | 197° |
| 2026-05-07 00:51 | -4.94525 | 119.63018 | 3282 ft | 198 kts | 206° |
| 2026-05-07 00:51 | -4.95660 | 119.62355 | 3227 ft | 184 kts | 210° |
| 2026-05-07 00:51 | -4.96736 | 119.61694 | 3212 ft | 177 kts | 211° |
| 2026-05-07 00:51 | -4.97760 | 119.61085 | 2964 ft | 170 kts | 210° |
| 2026-05-07 00:52 | -4.98786 | 119.60483 | 2553 ft | 172 kts | 210° |
| 2026-05-07 00:52 | -4.99823 | 119.59878 | 2154 ft | 173 kts | 210° |
| 2026-05-07 00:52 | -5.00852 | 119.59279 | 1776 ft | 173 kts | 210° |
| 2026-05-07 00:52 | -5.01887 | 119.58677 | 1364 ft | 172 kts | 210° |
| 2026-05-07 00:53 | -5.02918 | 119.58077 | 1106 ft | 171 kts | 210° |
| 2026-05-07 00:53 | -5.03893 | 119.57510 | 1028 ft | 154 kts | 210° |
| 2026-05-07 00:53 | -5.04797 | 119.56957 | 745 ft | 153 kts | 211° |
| 2026-05-07 00:53 | -5.05717 | 119.56439 | 445 ft | 150 kts | 210° |
| 2026-05-07 00:54 | -5.06618 | 119.55922 | 142 ft | 148 kts | 210° |
| 2026-05-07 00:54 | -5.07458 | 119.55425 | 63 ft | 136 kts | 210° |
| 2026-05-07 00:54 | -5.08219 | 119.54990 | 61 ft | 109 kts | 211° |
| 2026-05-07 00:54 | -5.08768 | 119.54673 | 61 ft | 74 kts | 210° |
| 2026-05-07 00:55 | -5.09135 | 119.54464 | 60 ft | 47 kts | 212° |
| 2026-05-07 00:55 | -5.09184 | 119.54353 | 60 ft | 13 kts | 293° |
| 2026-05-07 00:55 | -5.09115 | 119.54285 | 60 ft | 16 kts | 358° |
| 2026-05-07 00:55 | -5.09000 | 119.54337 | 60 ft | 22 kts | 28° |
| 2026-05-07 00:56 | -5.08849 | 119.54424 | 60 ft | 29 kts | 30° |
| 2026-05-07 00:56 | -5.08656 | 119.54535 | 60 ft | 35 kts | 30° |
| 2026-05-07 00:56 | -5.08425 | 119.54670 | 60 ft | 42 kts | 30° |
| 2026-05-07 00:56 | -5.08173 | 119.54815 | 60 ft | 38 kts | 30° |
| 2026-05-07 00:57 | -5.08058 | 119.54829 | 60 ft | 11 kts | 311° |
| 2026-05-07 00:57 | -5.08016 | 119.54768 | 60 ft | 10 kts | 303° |
| 2026-05-07 00:57 | -5.07973 | 119.54710 | 60 ft | 10 kts | 307° |
| 2026-05-07 00:57 | -5.07947 | 119.54667 | 60 ft | 0 kts | 300° |